createdAt,value
2022-07-29T00:07:30.030Z,1000.36
2022-07-29T00:17:36.610Z,1000.22
2022-07-29T00:27:42.638Z,1000.20
2022-07-29T00:37:48.595Z,1000.08
2022-07-29T00:47:54.978Z,1000.07
2022-07-29T00:58:01.472Z,1000.05
2022-07-29T01:08:07.335Z,1000.05
2022-07-29T01:18:14.970Z,999.89
2022-07-29T01:28:24.683Z,999.86
2022-07-29T01:38:32.915Z,999.71
2022-07-29T01:48:38.950Z,999.60
2022-07-29T01:58:45.144Z,999.58
2022-07-29T02:08:51.243Z,999.67
2022-07-29T02:18:57.293Z,999.63
2022-07-29T02:29:03.492Z,999.59
2022-07-29T02:39:10.619Z,999.54
2022-07-29T02:49:16.965Z,999.56
2022-07-29T02:59:23.732Z,999.45
2022-07-29T03:09:29.209Z,999.55
2022-07-29T03:19:36.823Z,999.66
2022-07-29T03:29:43.707Z,999.69
2022-07-29T03:39:55.650Z,999.66
2022-07-29T03:50:01.732Z,999.69
2022-07-29T04:00:08.228Z,999.71
2022-07-29T04:10:14.335Z,999.82
2022-07-29T04:20:22.251Z,999.79
2022-07-29T04:30:28.772Z,999.72
2022-07-29T04:40:35.029Z,999.73
2022-07-29T04:50:45.202Z,999.63
2022-07-29T05:00:53.641Z,999.57
2022-07-29T05:11:11.577Z,999.66
2022-07-29T05:21:11.985Z,999.73
2022-07-29T05:31:18.286Z,999.78
2022-07-29T05:41:24.796Z,999.82
2022-07-29T05:51:31.021Z,999.78
2022-07-29T06:01:37.010Z,999.81
2022-07-29T06:11:45.485Z,999.76
2022-07-29T06:21:51.601Z,999.89
2022-07-29T06:31:57.743Z,999.91
2022-07-29T06:42:03.979Z,999.77
2022-07-29T06:52:10.075Z,999.75
2022-07-29T07:02:18.058Z,999.78
2022-07-29T07:12:24.244Z,999.73
2022-07-29T07:22:33.473Z,999.67
2022-07-29T07:32:42.012Z,999.49
2022-07-29T07:42:48.774Z,999.44
2022-07-29T07:52:55.143Z,999.48
2022-07-29T08:03:01.513Z,999.56
2022-07-29T08:13:07.965Z,999.46
2022-07-29T08:23:14.148Z,999.39
2022-07-29T08:33:20.821Z,999.37
2022-07-29T08:43:27.272Z,999.34
2022-07-29T08:53:33.697Z,999.36
2022-07-29T09:03:39.704Z,999.26
2022-07-29T09:13:46.349Z,999.23
2022-07-29T09:23:52.789Z,999.08
2022-07-29T09:33:59.219Z,999.00
2022-07-29T09:44:06.914Z,998.88
2022-07-29T09:54:13.089Z,998.75
2022-07-29T10:04:19.794Z,998.59
2022-07-29T10:14:26.097Z,998.52
2022-07-29T10:24:32.652Z,998.42
2022-07-29T10:34:39.431Z,998.36
2022-07-29T10:44:48.086Z,997.78
2022-07-29T10:54:55.842Z,997.96
2022-07-29T11:05:04.281Z,998.00
2022-07-29T11:15:11.067Z,997.82
2022-07-29T11:25:42.799Z,997.75
2022-07-29T11:35:38.075Z,997.87
2022-07-29T11:45:46.653Z,997.94
2022-07-29T11:55:52.166Z,997.82
2022-07-29T12:05:59.908Z,997.80
2022-07-29T12:16:05.686Z,997.76
2022-07-29T12:26:25.465Z,997.80
2022-07-29T12:36:24.188Z,997.91
2022-07-29T12:46:31.995Z,997.75
2022-07-29T12:56:45.632Z,997.80
2022-07-29T13:06:51.232Z,997.80
2022-07-29T13:16:57.448Z,998.04
2022-07-29T13:27:05.674Z,998.09
2022-07-29T13:37:11.786Z,998.16
2022-07-29T13:47:19.560Z,998.19
2022-07-29T13:57:25.682Z,998.13
2022-07-29T14:07:32.253Z,997.92
2022-07-29T14:17:38.001Z,997.91
2022-07-29T14:27:45.429Z,997.95
2022-07-29T14:37:51.448Z,997.91
2022-07-29T14:49:31.415Z,997.89
2022-07-29T14:59:36.667Z,997.81
2022-07-29T15:09:49.526Z,997.56
2022-07-29T15:19:55.311Z,997.42
2022-07-29T15:30:00.953Z,997.34
2022-07-29T15:40:06.628Z,997.17
2022-07-29T15:50:12.866Z,997.35
2022-07-29T16:00:19.285Z,997.36
2022-07-29T16:10:25.646Z,997.38
2022-07-29T16:20:31.943Z,997.31
2022-07-29T16:30:38.283Z,997.35
2022-07-29T16:40:44.688Z,997.31
2022-07-29T16:50:50.966Z,997.24
2022-07-29T17:00:57.439Z,997.28
2022-07-29T17:11:03.765Z,997.32
2022-07-29T17:21:09.895Z,997.32
2022-07-29T17:31:16.393Z,997.44
2022-07-29T17:41:22.774Z,997.41
2022-07-29T17:51:29.044Z,997.28
2022-07-29T18:01:35.424Z,997.35
2022-07-29T18:11:44.461Z,997.42
2022-07-29T18:21:55.305Z,997.53
2022-07-29T18:32:03.074Z,997.61
2022-07-29T18:42:09.044Z,997.77
2022-07-29T18:52:15.298Z,997.77
2022-07-29T19:02:21.784Z,997.71
2022-07-29T19:12:28.238Z,997.87
2022-07-29T19:22:34.493Z,997.88
2022-07-29T19:32:40.912Z,998.11
2022-07-29T19:42:47.262Z,998.35
2022-07-29T19:52:53.466Z,998.50
2022-07-29T20:03:00.471Z,998.78
2022-07-29T20:13:06.514Z,998.77
2022-07-29T20:23:14.476Z,998.74
2022-07-29T20:33:20.317Z,998.75
2022-07-29T20:43:27.739Z,998.87
2022-07-29T20:53:33.678Z,999.03
2022-07-29T21:03:41.983Z,999.41
2022-07-29T21:13:48.322Z,999.17
2022-07-29T21:23:54.672Z,999.30
2022-07-29T21:34:00.730Z,999.36
2022-07-29T21:44:08.503Z,999.37
2022-07-29T21:54:14.321Z,999.21
2022-07-29T22:04:22.643Z,999.30
2022-07-29T22:14:29.001Z,999.28
2022-07-29T22:24:35.062Z,999.34
2022-07-29T22:34:41.299Z,999.33
2022-07-29T22:44:48.718Z,999.33
2022-07-29T22:54:54.875Z,999.29
2022-07-29T23:05:01.076Z,999.04
2022-07-29T23:15:08.008Z,998.99
2022-07-29T23:25:14.394Z,998.99
2022-07-29T23:35:20.532Z,998.99
2022-07-29T23:45:32.592Z,999.00
2022-07-29T23:55:39.925Z,998.76
